createdAt,value
2019-02-20T00:02:21.670Z,59.43
2019-02-20T00:04:49.946Z,59.10
2019-02-20T00:07:18.248Z,59.00
2019-02-20T00:09:46.647Z,58.86
2019-02-20T00:12:14.907Z,58.18
2019-02-20T00:14:43.199Z,58.35
2019-02-20T00:17:11.472Z,58.10
2019-02-20T00:19:39.772Z,57.94
2019-02-20T00:22:08.044Z,57.76
2019-02-20T00:24:36.339Z,57.62
2019-02-20T00:27:04.628Z,57.16
2019-02-20T00:29:32.932Z,57.23
2019-02-20T00:32:01.197Z,56.83
2019-02-20T00:34:29.464Z,57.04
2019-02-20T00:36:57.747Z,57.00
2019-02-20T00:39:26.027Z,57.12
2019-02-20T00:41:54.283Z,57.18
2019-02-20T00:44:24.229Z,56.71
2019-02-20T00:47:06.071Z,56.35
2019-02-20T00:49:36.004Z,56.47
2019-02-20T00:52:21.004Z,56.64
2019-02-20T00:54:49.280Z,56.79
2019-02-20T00:57:17.570Z,57.33
2019-02-20T00:59:45.845Z,57.25
2019-02-20T01:02:14.136Z,57.33
2019-02-20T01:04:42.419Z,57.64
2019-02-20T01:07:10.686Z,57.49
2019-02-20T01:09:38.955Z,57.57
2019-02-20T01:12:07.310Z,57.77
2019-02-20T01:14:36.455Z,57.60
2019-02-20T01:17:04.693Z,57.30
2019-02-20T01:19:32.946Z,57.46
2019-02-20T01:22:01.236Z,57.39
2019-02-20T01:24:29.499Z,57.45
2019-02-20T01:26:57.787Z,57.30
2019-02-20T01:29:26.050Z,57.36
2019-02-20T01:31:54.319Z,57.37
2019-02-20T01:34:22.598Z,57.47
2019-02-20T01:36:50.878Z,57.37
2019-02-20T01:39:19.131Z,57.64
2019-02-20T01:41:47.400Z,57.79
2019-02-20T01:44:15.658Z,57.56
2019-02-20T01:46:43.978Z,57.56
2019-02-20T01:49:12.235Z,57.76
2019-02-20T01:51:40.493Z,57.75
2019-02-20T01:54:08.758Z,57.97
2019-02-20T01:56:37.009Z,58.08
2019-02-20T01:59:05.299Z,57.95
2019-02-20T02:01:33.551Z,57.77
2019-02-20T02:04:02.176Z,57.99
2019-02-20T02:06:30.446Z,58.05
2019-02-20T02:08:59.734Z,58.22
2019-02-20T02:11:28.123Z,58.18
2019-02-20T02:13:56.400Z,58.35
2019-02-20T02:16:24.685Z,58.42
2019-02-20T02:18:52.950Z,58.35
2019-02-20T02:21:21.220Z,58.60
2019-02-20T02:23:49.540Z,58.44
2019-02-20T02:26:17.816Z,58.32
2019-02-20T02:28:46.080Z,58.46
2019-02-20T02:31:14.559Z,58.24
2019-02-20T02:33:42.820Z,58.13
2019-02-20T02:36:11.077Z,58.22
2019-02-20T02:38:39.345Z,58.12
2019-02-20T02:41:07.619Z,57.84
2019-02-20T02:43:35.931Z,57.69
2019-02-20T02:46:04.193Z,57.64
2019-02-20T02:48:32.442Z,57.49
2019-02-20T02:51:00.743Z,56.80
2019-02-20T02:53:30.973Z,56.55
2019-02-20T02:55:59.023Z,56.48
2019-02-20T02:58:27.273Z,56.26
2019-02-20T03:00:55.544Z,56.14
2019-02-20T03:03:23.804Z,55.95
2019-02-20T03:05:52.082Z,55.77
2019-02-20T03:08:20.344Z,55.66
2019-02-20T03:10:48.667Z,55.46
2019-02-20T03:13:16.930Z,55.34
2019-02-20T03:15:45.192Z,54.95
2019-02-20T03:18:13.471Z,54.80
2019-02-20T03:20:41.754Z,54.46
2019-02-20T03:23:10.017Z,54.46
2019-02-20T03:25:38.270Z,54.37
2019-02-20T03:28:06.545Z,54.48
2019-02-20T03:30:34.827Z,55.04
2019-02-20T03:33:03.084Z,54.99
2019-02-20T03:35:31.364Z,54.25
2019-02-20T03:37:59.626Z,53.91
2019-02-20T03:40:27.940Z,53.81
2019-02-20T03:42:56.198Z,53.51
2019-02-20T03:45:24.437Z,53.38
2019-02-20T03:47:52.722Z,53.13
2019-02-20T03:50:22.639Z,53.06
2019-02-20T03:52:50.905Z,52.77
2019-02-20T03:55:19.178Z,53.29
2019-02-20T03:57:47.563Z,53.89
2019-02-20T04:00:15.942Z,53.42
2019-02-20T04:02:44.209Z,53.33
2019-02-20T04:05:12.504Z,52.92
2019-02-20T04:07:40.756Z,52.55
2019-02-20T04:10:09.195Z,52.28
2019-02-20T04:12:37.470Z,52.46
2019-02-20T04:15:07.266Z,52.07
2019-02-20T04:17:35.534Z,51.92
2019-02-20T04:20:05.693Z,52.38
2019-02-20T04:22:33.947Z,51.85
2019-02-20T04:25:02.217Z,51.59
2019-02-20T04:27:30.494Z,52.16
2019-02-20T04:29:58.783Z,52.00
2019-02-20T04:32:27.033Z,52.09
2019-02-20T04:34:55.323Z,51.70
2019-02-20T04:37:23.581Z,51.17
2019-02-20T04:39:51.840Z,51.81
2019-02-20T04:42:20.123Z,51.90
2019-02-20T04:44:48.392Z,51.61
2019-02-20T04:47:16.648Z,51.68
2019-02-20T04:49:44.915Z,51.73
2019-02-20T04:52:13.171Z,51.46
2019-02-20T04:54:41.470Z,51.47
2019-02-20T04:57:09.706Z,51.56
2019-02-20T04:59:37.996Z,51.54
2019-02-20T05:02:06.255Z,51.62
2019-02-20T05:04:34.529Z,51.94
2019-02-20T05:07:02.792Z,51.95
2019-02-20T05:09:31.075Z,51.89
2019-02-20T05:11:59.337Z,52.23
2019-02-20T05:14:27.625Z,52.30
2019-02-20T05:16:55.883Z,52.29
2019-02-20T05:19:24.174Z,52.08
2019-02-20T05:21:52.478Z,51.92
2019-02-20T05:24:24.549Z,51.88
2019-02-20T05:26:50.787Z,52.13
2019-02-20T05:29:19.024Z,52.44
2019-02-20T05:31:47.318Z,52.61
2019-02-20T05:34:15.593Z,52.87
2019-02-20T05:36:43.858Z,52.67
2019-02-20T05:39:12.154Z,52.70
2019-02-20T05:41:40.713Z,52.54
2019-02-20T05:44:08.981Z,52.89
2019-02-20T05:46:37.234Z,52.82
2019-02-20T05:49:05.529Z,52.82
2019-02-20T05:51:33.917Z,52.98
2019-02-20T05:54:02.280Z,52.84
2019-02-20T05:57:40.655Z,52.86
2019-02-20T06:00:11.887Z,52.68
2019-02-20T06:02:40.167Z,53.48
2019-02-20T06:05:08.414Z,52.84
2019-02-20T06:07:36.699Z,52.53
2019-02-20T06:10:07.294Z,52.53
2019-02-20T06:12:35.572Z,52.21
2019-02-20T06:15:05.096Z,51.91
2019-02-20T06:17:33.381Z,51.95
2019-02-20T06:20:01.659Z,51.75
2019-02-20T06:22:29.899Z,51.69
2019-02-20T06:24:58.178Z,51.64
2019-02-20T06:27:26.464Z,51.67
2019-02-20T06:29:54.738Z,51.60
2019-02-20T06:32:24.179Z,51.36
2019-02-20T06:34:52.607Z,51.34
2019-02-20T06:37:20.880Z,50.77
2019-02-20T06:39:49.178Z,50.65
2019-02-20T06:42:17.449Z,50.78
2019-02-20T06:44:45.708Z,50.78
2019-02-20T06:47:14.007Z,50.83
2019-02-20T06:49:42.274Z,50.77
2019-02-20T06:52:10.578Z,50.60
2019-02-20T06:54:38.872Z,50.94
2019-02-20T06:57:07.140Z,50.73
2019-02-20T06:59:35.412Z,50.67
2019-02-20T07:02:03.681Z,51.40
2019-02-20T07:04:31.971Z,51.66
2019-02-20T07:07:06.544Z,51.65
2019-02-20T07:09:56.054Z,51.49
2019-02-20T07:12:44.015Z,51.46
2019-02-20T07:15:18.344Z,52.06
2019-02-20T07:18:08.178Z,52.42
2019-02-20T07:20:52.092Z,52.26
2019-02-20T07:23:38.937Z,52.29
2019-02-20T07:26:44.773Z,52.34
2019-02-20T07:29:36.101Z,52.34
2019-02-20T07:32:04.412Z,52.63
2019-02-20T07:34:32.719Z,52.47
2019-02-20T07:37:01.034Z,51.96
2019-02-20T07:39:29.284Z,51.68
2019-02-20T07:41:57.578Z,51.65
2019-02-20T07:44:25.845Z,52.00
2019-02-20T07:46:54.121Z,51.88
2019-02-20T07:49:22.390Z,52.46
2019-02-20T07:51:50.658Z,52.16
2019-02-20T07:54:18.954Z,52.13
2019-02-20T07:56:47.212Z,52.14
2019-02-20T07:59:15.504Z,51.85
2019-02-20T08:01:43.771Z,51.83
2019-02-20T08:04:12.045Z,52.04
2019-02-20T08:06:40.315Z,51.35
2019-02-20T08:09:08.623Z,50.87
2019-02-20T08:11:36.884Z,50.98
2019-02-20T08:14:05.160Z,50.79
2019-02-20T08:16:33.420Z,51.16
2019-02-20T08:19:01.714Z,50.62
2019-02-20T08:21:29.978Z,50.53
2019-02-20T08:23:58.228Z,50.11
2019-02-20T08:26:26.518Z,50.62
2019-02-20T08:28:54.799Z,50.63
2019-02-20T08:31:23.081Z,50.74
2019-02-20T08:33:51.345Z,50.20
2019-02-20T08:36:19.649Z,49.89
2019-02-20T08:38:47.906Z,49.84
2019-02-20T08:41:16.181Z,50.13
2019-02-20T08:43:44.477Z,49.26
2019-02-20T08:46:12.750Z,49.58
2019-02-20T08:48:41.084Z,49.60
2019-02-20T08:51:09.342Z,49.44
2019-02-20T08:53:37.645Z,49.23
2019-02-20T08:56:05.936Z,49.11
2019-02-20T08:58:34.185Z,48.93
2019-02-20T09:01:02.444Z,49.12
2019-02-20T09:03:30.739Z,48.70
2019-02-20T09:05:59.002Z,48.88
2019-02-20T09:08:27.278Z,48.40
2019-02-20T09:10:55.553Z,48.56
2019-02-20T09:13:23.842Z,48.37
2019-02-20T09:15:52.104Z,49.00
2019-02-20T09:18:20.425Z,48.99
2019-02-20T09:20:48.672Z,48.84
2019-02-20T09:23:16.946Z,49.26
2019-02-20T09:25:45.222Z,49.44
2019-02-20T09:28:13.486Z,49.28
2019-02-20T09:30:43.428Z,48.90
2019-02-20T09:33:11.715Z,49.33
2019-02-20T09:35:40.014Z,48.47
2019-02-20T09:38:10.417Z,48.46
2019-02-20T09:40:38.287Z,48.68
2019-02-20T09:43:06.546Z,47.40
2019-02-20T09:45:41.633Z,47.19
2019-02-20T09:48:04.850Z,47.14
2019-02-20T09:50:33.148Z,46.24
2019-02-20T09:53:01.456Z,45.68
2019-02-20T09:55:29.741Z,46.22
2019-02-20T09:57:58.036Z,45.96
2019-02-20T10:00:26.308Z,45.22
2019-02-20T10:02:54.600Z,44.71
2019-02-20T10:05:22.870Z,43.95
2019-02-20T10:07:51.160Z,43.00
2019-02-20T10:10:19.437Z,42.58
2019-02-20T10:12:47.733Z,42.25
2019-02-20T10:15:20.135Z,41.93
2019-02-20T10:17:48.988Z,42.56
2019-02-20T10:20:17.285Z,42.38
2019-02-20T10:22:45.593Z,42.00
2019-02-20T10:25:14.022Z,42.12
2019-02-20T10:27:42.349Z,41.86
2019-02-20T10:30:18.205Z,41.78
2019-02-20T10:32:46.480Z,40.70
2019-02-20T10:35:14.773Z,40.45
2019-02-20T10:37:43.032Z,40.09
2019-02-20T10:40:11.765Z,40.32
2019-02-20T10:42:40.036Z,39.58
2019-02-20T10:45:11.917Z,40.23
2019-02-20T10:47:40.187Z,41.30
2019-02-20T10:50:10.710Z,40.72
2019-02-20T10:52:38.989Z,40.72
2019-02-20T10:55:08.584Z,40.87
2019-02-20T10:57:36.946Z,39.76
2019-02-20T11:00:09.894Z,39.64
2019-02-20T11:02:38.155Z,39.57
2019-02-20T11:05:06.686Z,38.42
2019-02-20T11:07:34.970Z,39.06
2019-02-20T11:10:03.608Z,38.93
2019-02-20T11:12:31.899Z,39.04
2019-02-20T11:15:00.276Z,39.21
2019-02-20T11:17:28.530Z,39.86
2019-02-20T11:19:56.807Z,39.33
2019-02-20T11:22:25.148Z,39.31
2019-02-20T11:24:53.915Z,38.28
2019-02-20T11:27:23.033Z,36.65
2019-02-20T11:29:51.304Z,35.84
2019-02-20T11:32:19.568Z,36.13
2019-02-20T11:34:47.866Z,35.47
2019-02-20T11:37:16.130Z,35.39
2019-02-20T11:39:44.426Z,34.55
2019-02-20T11:42:12.691Z,35.17
2019-02-20T11:44:40.974Z,34.55
2019-02-20T11:47:09.239Z,35.19
2019-02-20T11:49:37.501Z,36.04
2019-02-20T11:52:05.795Z,36.51
2019-02-20T11:54:34.061Z,37.15
2019-02-20T11:57:02.361Z,36.42
2019-02-20T11:59:30.618Z,36.64
2019-02-20T12:01:58.902Z,35.01
2019-02-20T12:04:27.193Z,34.99
2019-02-20T12:06:55.448Z,35.12
2019-02-20T12:09:24.133Z,35.23
2019-02-20T12:11:54.040Z,34.89
2019-02-20T12:14:24.277Z,34.44
2019-02-20T12:16:52.498Z,34.62
2019-02-20T12:19:20.863Z,34.71
2019-02-20T12:21:49.195Z,35.37
2019-02-20T12:24:17.477Z,33.76
2019-02-20T12:26:45.737Z,32.60
2019-02-20T12:29:14.030Z,32.44
2019-02-20T12:31:42.288Z,32.49
2019-02-20T12:34:10.592Z,32.76
2019-02-20T12:36:38.861Z,33.26
2019-02-20T12:39:07.155Z,32.51
2019-02-20T12:41:35.457Z,33.40
2019-02-20T12:44:03.733Z,33.26
2019-02-20T12:46:31.998Z,32.92
2019-02-20T12:49:00.334Z,32.76
2019-02-20T12:51:28.711Z,32.26
2019-02-20T12:53:56.974Z,32.45
2019-02-20T12:56:25.253Z,32.69
2019-02-20T12:58:53.515Z,33.07
2019-02-20T13:01:21.786Z,33.17
2019-02-20T13:03:50.049Z,33.81
2019-02-20T13:06:18.350Z,34.08
2019-02-20T13:08:46.606Z,34.21
2019-02-20T13:11:14.893Z,34.27
2019-02-20T13:13:43.545Z,34.37
2019-02-20T13:16:11.860Z,34.94
2019-02-20T13:18:40.122Z,34.93
2019-02-20T13:21:08.416Z,34.93
2019-02-20T13:23:36.671Z,34.96
2019-02-20T13:26:04.981Z,35.11
2019-02-20T13:28:33.243Z,35.07
2019-02-20T13:31:01.565Z,35.13
2019-02-20T13:33:29.797Z,35.24
2019-02-20T13:35:58.111Z,35.16
2019-02-20T13:38:26.396Z,35.37
2019-02-20T13:40:54.649Z,35.37
2019-02-20T13:43:22.997Z,35.20
2019-02-20T13:45:51.255Z,35.56
2019-02-20T13:48:19.531Z,35.18
2019-02-20T13:50:47.790Z,35.13
2019-02-20T13:53:16.063Z,35.45
2019-02-20T13:55:44.332Z,35.53
2019-02-20T13:58:12.629Z,35.89
2019-02-20T14:00:42.957Z,35.34
2019-02-20T14:03:13.141Z,35.16
2019-02-20T14:05:41.233Z,34.86
2019-02-20T14:08:09.514Z,34.97
2019-02-20T14:10:37.796Z,35.68
2019-02-20T14:13:06.059Z,35.98
2019-02-20T14:15:34.336Z,35.88
2019-02-20T14:18:02.982Z,35.99
2019-02-20T14:20:31.278Z,36.09
2019-02-20T14:22:59.553Z,36.29
2019-02-20T14:25:27.825Z,36.48
2019-02-20T14:27:56.087Z,36.53
2019-02-20T14:30:24.374Z,36.97
2019-02-20T14:32:52.652Z,36.34
2019-02-20T14:35:21.326Z,36.74
2019-02-20T14:37:49.619Z,36.92
2019-02-20T14:40:17.897Z,37.09
2019-02-20T14:42:46.177Z,37.38
2019-02-20T14:45:16.947Z,37.37
2019-02-20T14:47:45.246Z,37.26
2019-02-20T14:50:14.617Z,37.29
2019-02-20T14:52:43.555Z,37.08
2019-02-20T14:55:11.819Z,36.98
2019-02-20T14:57:40.101Z,37.21
2019-02-20T15:00:15.478Z,37.15
2019-02-20T15:02:43.747Z,37.33
2019-02-20T15:05:12.210Z,37.43
2019-02-20T15:07:41.139Z,37.39
2019-02-20T15:10:10.214Z,37.54
2019-02-20T15:12:38.519Z,37.36
2019-02-20T15:15:12.144Z,37.14
2019-02-20T15:17:40.421Z,37.32
2019-02-20T15:20:11.104Z,36.78
2019-02-20T15:22:39.619Z,37.39
2019-02-20T15:25:09.153Z,37.41
2019-02-20T15:27:37.396Z,37.50
2019-02-20T15:30:12.416Z,37.40
2019-02-20T15:32:40.859Z,37.62
2019-02-20T15:35:09.123Z,37.56
2019-02-20T15:37:37.406Z,37.88
2019-02-20T15:40:07.943Z,37.89
2019-02-20T15:42:36.210Z,37.96
2019-02-20T15:45:06.772Z,37.96
2019-02-20T15:47:35.943Z,38.27
2019-02-20T15:50:09.452Z,38.20
2019-02-20T15:52:39.643Z,38.64
2019-02-20T15:55:11.237Z,38.57
2019-02-20T15:57:39.118Z,38.57
2019-02-20T16:00:17.597Z,38.71
2019-02-20T16:02:45.868Z,38.97
2019-02-20T16:05:14.520Z,39.14
2019-02-20T16:07:45.531Z,39.31
2019-02-20T16:10:13.808Z,38.88
2019-02-20T16:12:43.109Z,39.25
2019-02-20T16:15:11.530Z,38.75
2019-02-20T16:17:39.816Z,39.08
2019-02-20T16:20:10.612Z,38.98
2019-02-20T16:22:38.877Z,39.22
2019-02-20T16:25:11.799Z,39.12
2019-02-20T16:27:46.804Z,38.88
2019-02-20T16:30:15.975Z,39.06
2019-02-20T16:32:51.334Z,38.91
2019-02-20T16:35:21.441Z,38.90
2019-02-20T16:37:51.973Z,38.58
2019-02-20T16:40:20.302Z,38.63
2019-02-20T16:42:48.600Z,38.31
2019-02-20T16:45:20.127Z,37.82
2019-02-20T16:47:54.094Z,37.97
2019-02-20T16:50:22.444Z,38.02
2019-02-20T16:52:50.702Z,37.70
2019-02-20T16:55:19.657Z,38.06
2019-02-20T16:57:56.204Z,38.25
2019-02-20T17:00:20.601Z,38.27
2019-02-20T17:02:49.192Z,38.11
2019-02-20T17:05:17.498Z,38.23
2019-02-20T17:07:45.770Z,38.24
2019-02-20T17:10:15.776Z,38.35
2019-02-20T17:12:44.045Z,38.42
2019-02-20T17:15:16.191Z,38.14
2019-02-20T17:17:44.522Z,38.16
2019-02-20T17:20:17.500Z,38.13
2019-02-20T17:22:45.418Z,38.39
2019-02-20T17:25:14.789Z,38.28
2019-02-20T17:27:43.079Z,38.07
2019-02-20T17:30:16.358Z,37.96
2019-02-20T17:32:45.010Z,37.55
2019-02-20T17:35:13.419Z,37.43
2019-02-20T17:37:41.698Z,37.61
2019-02-20T17:40:12.193Z,36.91
2019-02-20T17:42:40.466Z,37.16
2019-02-20T17:45:14.336Z,37.26
2019-02-20T17:47:45.206Z,37.24
2019-02-20T17:50:22.328Z,37.48
2019-02-20T17:52:51.772Z,37.47
2019-02-20T17:55:20.067Z,37.63
2019-02-20T17:57:48.367Z,37.46
2019-02-20T18:00:19.907Z,37.52
2019-02-20T18:02:48.191Z,37.71
2019-02-20T18:05:16.455Z,37.95
2019-02-20T18:07:49.672Z,38.05
2019-02-20T18:10:15.792Z,38.01
2019-02-20T18:12:44.084Z,38.30
2019-02-20T18:15:13.619Z,38.67
2019-02-20T18:17:41.924Z,39.12
2019-02-20T18:20:11.253Z,39.59
2019-02-20T18:22:39.518Z,39.67
2019-02-20T18:25:11.753Z,40.01
2019-02-20T18:27:40.053Z,40.31
2019-02-20T18:30:13.827Z,40.62
2019-02-20T18:32:42.144Z,40.62
2019-02-20T18:35:13.020Z,40.99
2019-02-20T18:37:41.291Z,41.24
2019-02-20T18:40:12.200Z,41.34
2019-02-20T18:42:40.455Z,41.42
2019-02-20T18:45:10.971Z,41.49
2019-02-20T18:47:39.342Z,41.52
2019-02-20T18:50:10.082Z,41.32
2019-02-20T18:52:38.340Z,41.62
2019-02-20T18:55:09.174Z,41.29
2019-02-20T18:57:37.434Z,41.42
2019-02-20T19:00:11.608Z,41.23
2019-02-20T19:02:39.891Z,41.00
2019-02-20T19:05:09.098Z,41.25
2019-02-20T19:07:37.425Z,41.08
2019-02-20T19:10:11.513Z,41.23
2019-02-20T19:13:00.924Z,40.93
2019-02-20T19:15:48.802Z,41.06
2019-02-20T19:18:43.203Z,41.17
2019-02-20T19:21:20.601Z,41.31
2019-02-20T19:24:16.057Z,41.40
2019-02-20T19:26:56.403Z,41.27
2019-02-20T19:29:33.754Z,41.33
2019-02-20T19:32:26.324Z,41.06
2019-02-20T19:35:06.338Z,41.47
2019-02-20T19:37:54.956Z,41.67
2019-02-20T19:40:32.014Z,41.72
2019-02-20T19:43:27.053Z,41.57
2019-02-20T19:46:00.177Z,41.70
2019-02-20T19:48:39.859Z,41.73
2019-02-20T19:51:27.618Z,41.88
2019-02-20T19:53:59.127Z,41.67
2019-02-20T19:56:36.829Z,41.67
2019-02-20T19:59:17.782Z,41.45
2019-02-20T20:02:01.357Z,41.60
2019-02-20T20:04:49.508Z,41.95
2019-02-20T20:07:32.770Z,41.81
2019-02-20T20:10:13.026Z,42.14
2019-02-20T20:12:44.631Z,42.00
2019-02-20T20:15:34.523Z,41.94
2019-02-20T20:18:11.703Z,41.53
2019-02-20T20:20:58.242Z,41.77
2019-02-20T20:23:46.247Z,41.84
2019-02-20T20:26:38.609Z,42.06
2019-02-20T20:29:16.259Z,42.36
2019-02-20T20:31:53.589Z,42.76
2019-02-20T20:34:46.074Z,42.53
2019-02-20T20:37:23.859Z,42.39
2019-02-20T20:40:04.206Z,42.11
2019-02-20T20:42:44.854Z,42.07
2019-02-20T20:45:33.861Z,42.05
2019-02-20T20:48:14.587Z,41.89
2019-02-20T20:51:20.795Z,42.16
2019-02-20T20:54:18.220Z,42.05
2019-02-20T20:57:12.149Z,42.33
2019-02-20T20:59:43.711Z,42.38
2019-02-20T21:02:15.255Z,42.35
2019-02-20T21:04:53.030Z,41.95
2019-02-20T21:07:42.423Z,41.71
2019-02-20T21:10:13.986Z,41.57
2019-02-20T21:13:02.071Z,42.09
2019-02-20T21:15:59.368Z,41.83
2019-02-20T21:18:51.956Z,42.33
2019-02-20T21:21:32.384Z,42.43
2019-02-20T21:24:03.923Z,42.48
2019-02-20T21:26:52.019Z,42.31
2019-02-20T21:29:32.517Z,42.06
2019-02-20T21:32:04.206Z,41.91
2019-02-20T21:34:52.553Z,41.93
2019-02-20T21:37:46.969Z,41.82
2019-02-20T21:40:51.972Z,42.26
2019-02-20T21:43:29.520Z,43.31
2019-02-20T21:46:06.917Z,43.45
2019-02-20T21:48:41.403Z,42.67
2019-02-20T21:51:15.729Z,42.27
2019-02-20T21:54:15.969Z,42.27
2019-02-20T21:56:56.383Z,42.17
2019-02-20T21:59:43.959Z,42.50
2019-02-20T22:02:33.174Z,43.15
2019-02-20T22:05:07.446Z,42.82
2019-02-20T22:08:12.507Z,42.97
2019-02-20T22:11:00.769Z,42.64
2019-02-20T22:13:41.367Z,42.97
2019-02-20T22:16:15.904Z,42.88
2019-02-20T22:19:08.664Z,42.96
2019-02-20T22:22:15.245Z,42.83
2019-02-20T22:25:12.544Z,43.35
2019-02-20T22:27:55.653Z,43.36
2019-02-20T22:30:36.273Z,43.54
2019-02-20T22:33:10.889Z,43.08
2019-02-20T22:35:57.479Z,43.06
2019-02-20T22:39:02.425Z,42.61
2019-02-20T22:41:36.957Z,42.99
2019-02-20T22:44:23.423Z,43.29
2019-02-20T22:47:17.880Z,42.97
2019-02-20T22:49:58.170Z,43.20
2019-02-20T22:52:35.428Z,43.43
2019-02-20T22:55:21.422Z,43.22
2019-02-20T22:58:10.002Z,42.86
2019-02-20T23:00:58.205Z,43.00
2019-02-20T23:03:32.582Z,42.81
2019-02-20T23:06:20.518Z,42.85
2019-02-20T23:09:26.249Z,42.48
2019-02-20T23:12:16.193Z,43.05
2019-02-20T23:15:00.344Z,43.39
2019-02-20T23:17:29.017Z,43.39
2019-02-20T23:19:57.448Z,43.32
2019-02-20T23:22:25.742Z,43.21
2019-02-20T23:24:54.006Z,43.62
2019-02-20T23:27:22.297Z,43.01
2019-02-20T23:29:50.596Z,42.75
2019-02-20T23:32:18.896Z,42.54
2019-02-20T23:34:47.185Z,42.64
2019-02-20T23:37:15.474Z,42.52
2019-02-20T23:39:43.785Z,42.59
2019-02-20T23:42:12.049Z,42.36
2019-02-20T23:44:40.436Z,42.44
2019-02-20T23:47:08.697Z,42.25
2019-02-20T23:49:36.963Z,42.19
2019-02-20T23:52:05.253Z,42.29
2019-02-20T23:54:33.519Z,42.34
2019-02-20T23:57:01.797Z,42.65
2019-02-20T23:59:30.450Z,42.77
